Terminal Aerodrome Forecast
Issued by NWS

Home | Current Version | Previous Version | Text Only | Print | Product List | Glossary On
Versions: 1 2 3 4 5 6 7 8 9 10 11 12 13 14
395
FTAK31 PAJN 232338
TAFAWG
TAF
PAWG 232338Z 2400/2424 VRB06KT P6SM -SHRA FEW006 SCT010 OVC035
      TEMPO 2400/2404 3SM SHRA SCT006 BKN010 OVC025
     FM240400 14008KT 3SM SHRA BR SCT006 BKN010 OVC025
     FM241800 12010KT P6SM -SHRA SCT012 SCT025 OVC040
      AMD LTD TO CLD VIS AND WIND 2406/2415=

USA.gov is the U.S. government's official web portal to all federal, state and local government web resources and services.